sensor_id;sensor_type;location;lat;lon;timestamp;P1;durP1;ratioP1;P2;durP2;ratioP2
57329;SDS011;43163;51.032;18.280;2023-05-14T00:07:50;11.00;;;6.60;;
57329;SDS011;43163;51.032;18.280;2023-05-14T00:17:41;11.00;;;5.40;;
57329;SDS011;43163;51.032;18.280;2023-05-14T00:27:33;6.10;;;3.90;;
57329;SDS011;43163;51.032;18.280;2023-05-14T00:37:22;13.90;;;7.00;;
57329;SDS011;43163;51.032;18.280;2023-05-14T00:47:11;10.40;;;5.30;;
57329;SDS011;43163;51.032;18.280;2023-05-14T00:57:02;11.70;;;7.00;;
57329;SDS011;43163;51.032;18.280;2023-05-14T01:17:27;9.80;;;7.00;;
57329;SDS011;43163;51.032;18.280;2023-05-14T01:27:18;12.40;;;5.40;;
57329;SDS011;43163;51.032;18.280;2023-05-14T01:37:40;13.60;;;6.90;;
57329;SDS011;43163;51.032;18.280;2023-05-14T01:47:31;11.20;;;7.40;;
57329;SDS011;43163;51.032;18.280;2023-05-14T01:57:20;17.00;;;7.70;;
57329;SDS011;43163;51.032;18.280;2023-05-14T02:07:09;12.10;;;7.50;;
57329;SDS011;43163;51.032;18.280;2023-05-14T02:16:59;5.80;;;5.20;;
57329;SDS011;43163;51.032;18.280;2023-05-14T02:26:47;14.70;;;8.10;;
57329;SDS011;43163;51.032;18.280;2023-05-14T02:36:35;9.90;;;6.70;;
57329;SDS011;43163;51.032;18.280;2023-05-14T02:46:24;14.80;;;7.40;;
57329;SDS011;43163;51.032;18.280;2023-05-14T02:56:13;11.50;;;6.90;;
57329;SDS011;43163;51.032;18.280;2023-05-14T03:06:04;21.70;;;7.50;;
57329;SDS011;43163;51.032;18.280;2023-05-14T03:15:53;15.40;;;7.10;;
57329;SDS011;43163;51.032;18.280;2023-05-14T03:25:42;14.30;;;8.10;;
57329;SDS011;43163;51.032;18.280;2023-05-14T03:35:31;14.80;;;8.00;;
57329;SDS011;43163;51.032;18.280;2023-05-14T03:52:43;18.90;;;8.30;;
57329;SDS011;43163;51.032;18.280;2023-05-14T04:02:34;17.00;;;8.50;;
57329;SDS011;43163;51.032;18.280;2023-05-14T04:12:22;21.90;;;9.50;;
57329;SDS011;43163;51.032;18.280;2023-05-14T04:22:11;13.60;;;9.20;;
57329;SDS011;43163;51.032;18.280;2023-05-14T04:32:00;3.10;;;2.80;;
57329;SDS011;43163;51.032;18.280;2023-05-14T05:27:25;19.10;;;10.00;;
57329;SDS011;43163;51.032;18.280;2023-05-14T05:37:17;10.30;;;7.30;;
57329;SDS011;43163;51.032;18.280;2023-05-14T05:47:08;10.50;;;7.60;;
57329;SDS011;43163;51.032;18.280;2023-05-14T05:56:58;15.00;;;6.40;;
57329;SDS011;43163;51.032;18.280;2023-05-14T06:06:52;12.90;;;6.00;;
57329;SDS011;43163;51.032;18.280;2023-05-14T06:16:39;9.80;;;7.00;;
57329;SDS011;43163;51.032;18.280;2023-05-14T06:26:30;9.80;;;6.30;;
57329;SDS011;43163;51.032;18.280;2023-05-14T06:36:19;3.60;;;3.10;;
57329;SDS011;43163;51.032;18.280;2023-05-14T06:46:09;10.50;;;4.50;;
57329;SDS011;43163;51.032;18.280;2023-05-14T06:55:59;6.80;;;5.60;;
57329;SDS011;43163;51.032;18.280;2023-05-14T07:05:53;10.40;;;5.60;;
57329;SDS011;43163;51.032;18.280;2023-05-14T07:15:42;7.30;;;4.30;;
57329;SDS011;43163;51.032;18.280;2023-05-14T07:25:32;7.40;;;4.00;;
57329;SDS011;43163;51.032;18.280;2023-05-14T07:35:21;3.30;;;3.00;;
57329;SDS011;43163;51.032;18.280;2023-05-14T07:45:09;3.60;;;3.10;;
57329;SDS011;43163;51.032;18.280;2023-05-14T07:54:59;1.80;;;1.70;;
57329;SDS011;43163;51.032;18.280;2023-05-14T08:04:53;2.80;;;1.90;;
57329;SDS011;43163;51.032;18.280;2023-05-14T08:14:43;4.90;;;2.00;;
57329;SDS011;43163;51.032;18.280;2023-05-14T08:24:34;1.60;;;1.50;;
57329;SDS011;43163;51.032;18.280;2023-05-14T08:34:23;6.30;;;2.20;;
57329;SDS011;43163;51.032;18.280;2023-05-14T08:44:14;1.50;;;1.40;;
57329;SDS011;43163;51.032;18.280;2023-05-14T08:54:25;4.30;;;2.00;;
57329;SDS011;43163;51.032;18.280;2023-05-14T09:04:22;3.30;;;1.60;;
57329;SDS011;43163;51.032;18.280;2023-05-14T09:14:18;1.80;;;1.60;;
57329;SDS011;43163;51.032;18.280;2023-05-14T09:24:23;1.70;;;1.60;;
57329;SDS011;43163;51.032;18.280;2023-05-14T09:34:22;2.60;;;1.10;;
57329;SDS011;43163;51.032;18.280;2023-05-14T09:44:19;8.20;;;2.70;;
57329;SDS011;43163;51.032;18.280;2023-05-14T09:54:08;12.70;;;8.80;;
57329;SDS011;43163;51.032;18.280;2023-05-14T10:03:59;1.40;;;1.30;;
57329;SDS011;43163;51.032;18.280;2023-05-14T10:24:30;1.20;;;1.10;;
57329;SDS011;43163;51.032;18.280;2023-05-14T11:31:30;1.60;;;1.50;;
57329;SDS011;43163;51.032;18.280;2023-05-14T11:41:20;1.60;;;1.50;;
57329;SDS011;43163;51.032;18.280;2023-05-14T11:51:11;1.30;;;1.20;;
57329;SDS011;43163;51.032;18.280;2023-05-14T12:00:59;1.20;;;1.10;;
57329;SDS011;43163;51.032;18.280;2023-05-14T12:10:58;1.50;;;1.40;;
57329;SDS011;43163;51.032;18.280;2023-05-14T12:21:00;2.00;;;1.70;;
57329;SDS011;43163;51.032;18.280;2023-05-14T12:30:59;2.10;;;1.90;;
57329;SDS011;43163;51.032;18.280;2023-05-14T12:40:55;1.50;;;1.40;;
57329;SDS011;43163;51.032;18.280;2023-05-14T12:58:09;3.90;;;1.60;;
57329;SDS011;43163;51.032;18.280;2023-05-14T13:07:59;1.70;;;1.20;;
57329;SDS011;43163;51.032;18.280;2023-05-14T13:17:55;2.40;;;2.20;;
57329;SDS011;43163;51.032;18.280;2023-05-14T13:27:45;2.00;;;1.90;;
57329;SDS011;43163;51.032;18.280;2023-05-14T13:37:34;2.90;;;2.30;;
57329;SDS011;43163;51.032;18.280;2023-05-14T13:47:30;2.40;;;2.20;;
57329;SDS011;43163;51.032;18.280;2023-05-14T13:57:19;8.20;;;2.50;;
57329;SDS011;43163;51.032;18.280;2023-05-14T14:07:08;1.60;;;1.50;;
57329;SDS011;43163;51.032;18.280;2023-05-14T14:16:58;2.30;;;1.80;;
57329;SDS011;43163;51.032;18.280;2023-05-14T14:34:09;2.00;;;1.80;;
57329;SDS011;43163;51.032;18.280;2023-05-14T14:43:58;2.40;;;1.70;;
57329;SDS011;43163;51.032;18.280;2023-05-14T14:53:47;1.50;;;1.40;;
57329;SDS011;43163;51.032;18.280;2023-05-14T15:03:36;1.90;;;1.80;;
57329;SDS011;43163;51.032;18.280;2023-05-14T15:13:25;1.30;;;1.10;;
57329;SDS011;43163;51.032;18.280;2023-05-14T15:23:14;3.90;;;2.00;;
57329;SDS011;43163;51.032;18.280;2023-05-14T15:33:03;3.10;;;2.20;;
57329;SDS011;43163;51.032;18.280;2023-05-14T15:43:06;2.40;;;2.20;;
57329;SDS011;43163;51.032;18.280;2023-05-14T15:52:55;2.40;;;2.20;;
57329;SDS011;43163;51.032;18.280;2023-05-14T16:02:43;1.80;;;1.70;;
57329;SDS011;43163;51.032;18.280;2023-05-14T16:12:33;1.80;;;1.70;;
57329;SDS011;43163;51.032;18.280;2023-05-14T16:19:58;13.30;;;3.30;;
57329;SDS011;43163;51.032;18.280;2023-05-14T16:29:49;3.10;;;2.30;;
57329;SDS011;43163;51.032;18.280;2023-05-14T17:28:42;2.40;;;2.20;;
57329;SDS011;43163;51.032;18.280;2023-05-14T17:39:16;2.50;;;2.30;;
57329;SDS011;43163;51.032;18.280;2023-05-14T18:40:28;4.10;;;3.50;;
57329;SDS011;43163;51.032;18.280;2023-05-14T18:50:19;6.40;;;4.20;;
57329;SDS011;43163;51.032;18.280;2023-05-14T19:00:07;6.70;;;3.40;;
57329;SDS011;43163;51.032;18.280;2023-05-14T19:09:56;4.70;;;3.40;;
57329;SDS011;43163;51.032;18.280;2023-05-14T19:19:49;6.20;;;3.70;;
57329;SDS011;43163;51.032;18.280;2023-05-14T19:29:38;6.20;;;3.40;;
57329;SDS011;43163;51.032;18.280;2023-05-14T19:39:27;3.60;;;3.30;;
57329;SDS011;43163;51.032;18.280;2023-05-14T19:49:16;7.10;;;4.30;;
57329;SDS011;43163;51.032;18.280;2023-05-14T19:59:05;24.80;;;5.40;;
57329;SDS011;43163;51.032;18.280;2023-05-14T20:08:55;3.70;;;3.40;;
57329;SDS011;43163;51.032;18.280;2023-05-14T20:18:44;5.50;;;3.80;;
57329;SDS011;43163;51.032;18.280;2023-05-14T20:28:33;4.50;;;3.20;;
57329;SDS011;43163;51.032;18.280;2023-05-14T20:38:24;4.90;;;3.40;;
57329;SDS011;43163;51.032;18.280;2023-05-14T20:48:19;6.40;;;3.10;;
57329;SDS011;43163;51.032;18.280;2023-05-14T20:58:10;5.40;;;4.40;;
57329;SDS011;43163;51.032;18.280;2023-05-14T21:07:59;5.50;;;3.50;;
57329;SDS011;43163;51.032;18.280;2023-05-14T21:25:11;8.10;;;5.20;;
57329;SDS011;43163;51.032;18.280;2023-05-14T21:35:01;4.30;;;3.90;;
57329;SDS011;43163;51.032;18.280;2023-05-14T21:44:49;5.70;;;5.20;;
57329;SDS011;43163;51.032;18.280;2023-05-14T21:54:38;4.80;;;4.40;;
57329;SDS011;43163;51.032;18.280;2023-05-14T22:04:27;8.00;;;6.60;;
57329;SDS011;43163;51.032;18.280;2023-05-14T22:14:17;8.40;;;7.00;;
57329;SDS011;43163;51.032;18.280;2023-05-14T22:24:07;5.20;;;4.40;;
57329;SDS011;43163;51.032;18.280;2023-05-14T22:34:06;6.50;;;5.30;;
57329;SDS011;43163;51.032;18.280;2023-05-14T23:28:59;11.40;;;8.70;;
57329;SDS011;43163;51.032;18.280;2023-05-14T23:38:49;43.50;;;7.10;;
57329;SDS011;43163;51.032;18.280;2023-05-14T23:48:40;2.60;;;2.40;;
57329;SDS011;43163;51.032;18.280;2023-05-14T23:58:30;10.20;;;9.10;;
